createdAt,value
2023-02-14T00:01:20.668Z,5.05
2023-02-14T00:03:47.834Z,5.15
2023-02-14T00:06:15.830Z,5.45
2023-02-14T00:08:45.177Z,4.30
2023-02-14T00:11:13.911Z,6.25
2023-02-14T00:14:00.969Z,5.00
2023-02-14T00:16:28.078Z,5.35
2023-02-14T00:19:03.829Z,4.43
2023-02-14T00:21:32.563Z,5.05
2023-02-14T00:23:59.567Z,5.22
2023-02-14T00:26:26.622Z,6.32
2023-02-14T00:28:54.252Z,5.45
2023-02-14T00:31:21.657Z,4.95
2023-02-14T00:33:48.868Z,6.40
2023-02-14T00:36:16.659Z,5.18
2023-02-14T00:38:43.733Z,6.07
2023-02-14T00:41:10.753Z,5.85
2023-02-14T00:43:37.812Z,5.97
2023-02-14T00:46:05.015Z,5.80
2023-02-14T00:48:32.144Z,5.32
2023-02-14T00:50:59.432Z,4.72
2023-02-14T00:53:26.820Z,5.40
2023-02-14T00:55:53.897Z,5.45
2023-02-14T00:58:20.908Z,5.28
2023-02-14T01:00:48.042Z,4.10
2023-02-14T01:03:15.102Z,4.40
2023-02-14T01:05:42.166Z,4.40
2023-02-14T01:08:09.245Z,4.45
2023-02-14T01:10:39.736Z,4.78
2023-02-14T01:13:07.119Z,4.85
2023-02-14T01:15:38.795Z,4.78
2023-02-14T01:18:05.930Z,4.65
2023-02-14T01:20:33.042Z,5.80
2023-02-14T01:23:00.302Z,5.38
2023-02-14T01:25:28.148Z,5.25
2023-02-14T01:27:55.255Z,5.22
2023-02-14T01:30:22.597Z,4.43
2023-02-14T01:32:49.691Z,5.45
2023-02-14T01:35:16.836Z,5.35
2023-02-14T01:37:43.921Z,5.35
2023-02-14T01:40:13.811Z,5.03
2023-02-14T01:42:40.848Z,6.18
2023-02-14T01:45:22.593Z,5.93
2023-02-14T01:47:54.780Z,5.53
2023-02-14T01:50:27.330Z,5.70
2023-02-14T01:53:03.158Z,6.00
2023-02-14T01:55:34.128Z,5.93
2023-02-14T01:58:10.694Z,5.60
2023-02-14T02:00:59.006Z,6.00
2023-02-14T02:03:36.714Z,6.75
2023-02-14T02:06:17.661Z,5.57
2023-02-14T02:08:59.307Z,6.95
2023-02-14T02:11:27.702Z,7.00
2023-02-14T02:13:55.711Z,7.20
2023-02-14T02:17:08.320Z,7.55
2023-02-14T02:19:44.149Z,6.70
2023-02-14T02:22:35.701Z,7.50
2023-02-14T02:25:13.073Z,6.85
2023-02-14T02:27:53.147Z,7.93
2023-02-14T02:30:39.563Z,7.38
2023-02-14T02:33:25.271Z,7.90
2023-02-14T02:36:01.135Z,6.97
2023-02-14T02:39:06.665Z,7.50
2023-02-14T02:42:11.286Z,7.53
2023-02-14T02:45:02.917Z,8.38
2023-02-14T02:47:43.080Z,7.32
2023-02-14T02:50:47.556Z,7.13
2023-02-14T02:53:21.385Z,6.72
2023-02-14T02:56:17.053Z,6.32
2023-02-14T02:59:21.081Z,7.78
2023-02-14T03:02:09.741Z,6.55
2023-02-14T03:04:53.626Z,6.65
2023-02-14T03:07:36.800Z,6.40
2023-02-14T03:10:09.021Z,5.93
2023-02-14T03:12:37.717Z,5.53
2023-02-14T03:15:42.849Z,5.70
2023-02-14T03:18:30.071Z,5.32
2023-02-14T03:21:38.058Z,6.20
2023-02-14T03:24:34.854Z,5.68
2023-02-14T03:27:18.731Z,5.35
2023-02-14T03:29:48.413Z,5.45
2023-02-14T03:32:18.393Z,4.75
2023-02-14T03:35:18.396Z,5.38
2023-02-14T03:37:55.616Z,5.32
2023-02-14T03:40:26.298Z,5.88
2023-02-14T03:43:15.937Z,6.25
2023-02-14T03:46:24.733Z,5.35
2023-02-14T03:48:55.388Z,5.97
2023-02-14T03:51:24.835Z,5.57
2023-02-14T03:53:57.264Z,5.75
2023-02-14T03:56:35.222Z,5.88
2023-02-14T03:59:14.967Z,5.57
2023-02-14T04:01:56.684Z,6.65
2023-02-14T04:04:27.837Z,5.78
2023-02-14T04:06:55.239Z,6.60
2023-02-14T04:09:22.294Z,6.82
2023-02-14T04:11:50.737Z,6.20
2023-02-14T04:14:18.399Z,7.10
2023-02-14T04:17:03.653Z,6.97
2023-02-14T04:19:30.702Z,7.10
2023-02-14T04:21:57.770Z,6.57
2023-02-14T04:24:24.790Z,6.95
2023-02-14T04:27:06.221Z,6.18
2023-02-14T04:29:33.183Z,6.55
2023-02-14T04:32:00.265Z,5.50
2023-02-14T04:34:27.369Z,6.25
2023-02-14T04:36:54.969Z,6.45
2023-02-14T04:39:22.041Z,6.32
2023-02-14T04:41:49.009Z,5.75
2023-02-14T04:44:16.054Z,5.97
2023-02-14T04:46:43.172Z,5.78
2023-02-14T04:49:10.329Z,5.82
2023-02-14T04:51:37.404Z,5.13
2023-02-14T04:54:04.390Z,4.88
2023-02-14T04:56:31.423Z,5.65
2023-02-14T04:58:58.484Z,5.43
2023-02-14T05:01:25.572Z,5.57
2023-02-14T05:03:52.508Z,6.50
2023-02-14T05:06:19.607Z,6.00
2023-02-14T05:08:46.656Z,5.75
2023-02-14T05:11:13.902Z,6.70
2023-02-14T05:13:40.949Z,5.75
2023-02-14T05:16:07.999Z,6.03
2023-02-14T05:18:35.040Z,6.50
2023-02-14T05:21:02.322Z,6.20
2023-02-14T05:23:29.555Z,5.70
2023-02-14T05:25:56.565Z,6.70
2023-02-14T05:28:23.586Z,6.72
2023-02-14T05:30:52.264Z,6.93
2023-02-14T05:33:19.542Z,6.13
2023-02-14T05:35:46.641Z,5.85
2023-02-14T05:38:14.052Z,5.85
2023-02-14T05:40:43.107Z,5.93
2023-02-14T05:43:10.322Z,6.38
2023-02-14T05:45:38.034Z,5.63
2023-02-14T05:48:06.303Z,5.60
2023-02-14T05:50:33.457Z,5.63
2023-02-14T05:53:01.303Z,6.60
2023-02-14T05:55:28.459Z,7.20
2023-02-14T05:57:55.504Z,6.15
2023-02-14T06:00:24.633Z,7.22
2023-02-14T06:02:51.843Z,5.35
2023-02-14T06:05:20.541Z,6.70
2023-02-14T06:07:51.272Z,7.10
2023-02-14T06:10:20.017Z,6.40
2023-02-14T06:12:49.321Z,5.95
2023-02-14T06:15:17.288Z,5.65
2023-02-14T06:17:44.396Z,5.72
2023-02-14T06:20:12.209Z,6.32
2023-02-14T06:22:39.476Z,6.30
2023-02-14T06:25:07.540Z,5.65
2023-02-14T06:27:34.598Z,5.90
2023-02-14T06:30:01.709Z,5.60
2023-02-14T06:32:28.810Z,6.43
2023-02-14T06:34:55.879Z,6.65
2023-02-14T06:37:23.032Z,5.78
2023-02-14T06:39:50.080Z,5.85
2023-02-14T06:42:17.135Z,6.28
2023-02-14T06:44:44.178Z,7.15
2023-02-14T06:47:11.403Z,6.25
2023-02-14T06:49:39.748Z,6.90
2023-02-14T06:52:07.013Z,7.05
2023-02-14T06:54:34.054Z,6.45
2023-02-14T06:57:01.106Z,6.20
2023-02-14T06:59:28.164Z,5.93
2023-02-14T07:01:55.286Z,6.53
2023-02-14T07:04:22.342Z,6.55
2023-02-14T07:06:49.528Z,6.40
2023-02-14T07:09:18.411Z,6.20
2023-02-14T07:11:46.335Z,6.57
2023-02-14T07:14:13.831Z,6.15
2023-02-14T07:16:40.960Z,6.95
2023-02-14T07:19:07.997Z,7.28
2023-02-14T07:21:35.139Z,7.55
2023-02-14T07:24:02.217Z,8.50
2023-02-14T07:26:29.295Z,7.50
2023-02-14T07:28:56.318Z,8.57
2023-02-14T07:31:23.837Z,7.60
2023-02-14T07:33:52.236Z,7.63
2023-02-14T07:36:19.269Z,7.80
2023-02-14T07:38:46.392Z,6.70
2023-02-14T07:41:13.361Z,8.13
2023-02-14T07:43:40.416Z,7.90
2023-02-14T07:46:07.565Z,7.60
2023-02-14T07:48:34.814Z,7.85
2023-02-14T07:51:03.587Z,9.65
2023-02-14T07:53:30.953Z,7.45
2023-02-14T07:55:58.021Z,8.18
2023-02-14T07:58:25.085Z,7.93
2023-02-14T08:00:52.752Z,8.77
2023-02-14T08:03:19.799Z,8.60
2023-02-14T08:05:57.557Z,8.30
2023-02-14T08:08:29.774Z,8.70
2023-02-14T08:10:57.346Z,8.65
2023-02-14T08:13:24.563Z,9.43
2023-02-14T08:16:06.933Z,10.25
2023-02-14T08:18:38.178Z,8.45
2023-02-14T08:21:07.311Z,9.50
2023-02-14T08:23:35.748Z,10.15
2023-02-14T08:26:03.859Z,8.32
2023-02-14T08:28:33.548Z,8.95
2023-02-14T08:31:01.973Z,10.40
2023-02-14T08:33:29.241Z,9.50
2023-02-14T08:35:56.329Z,9.02
2023-02-14T08:38:23.404Z,8.73
2023-02-14T08:40:50.602Z,8.18
2023-02-14T08:43:17.741Z,9.82
2023-02-14T08:45:44.964Z,10.27
2023-02-14T08:48:13.315Z,9.05
2023-02-14T08:50:41.253Z,10.65
2023-02-14T08:53:13.463Z,10.90
2023-02-14T08:55:40.671Z,10.25
2023-02-14T08:58:08.776Z,9.95
2023-02-14T09:00:36.381Z,10.90
2023-02-14T09:03:03.593Z,9.93
2023-02-14T09:05:30.815Z,10.70
2023-02-14T09:07:58.048Z,9.68
2023-02-14T09:10:26.938Z,9.98
2023-02-14T09:12:54.058Z,10.60
2023-02-14T09:15:21.131Z,8.77
2023-02-14T09:17:48.259Z,9.85
2023-02-14T09:20:16.423Z,9.85
2023-02-14T09:22:43.841Z,10.57
2023-02-14T09:25:11.800Z,9.40
2023-02-14T09:27:39.357Z,10.73
2023-02-14T09:30:09.606Z,11.13
2023-02-14T09:32:36.640Z,10.93
2023-02-14T09:35:22.568Z,12.85
2023-02-14T09:37:49.635Z,10.43
2023-02-14T09:40:19.579Z,11.73
2023-02-14T09:43:15.134Z,11.05
2023-02-14T09:45:47.956Z,11.05
2023-02-14T09:48:33.877Z,10.75
2023-02-14T09:51:06.686Z,10.95
2023-02-14T09:54:00.768Z,13.85
2023-02-14T09:56:51.250Z,13.25
2023-02-14T09:59:35.190Z,11.23
2023-02-14T10:02:42.314Z,12.80
2023-02-14T10:05:29.315Z,11.15
2023-02-14T10:08:22.307Z,14.25
2023-02-14T10:10:59.697Z,12.98
2023-02-14T10:13:39.560Z,12.48
2023-02-14T10:16:32.657Z,12.00
2023-02-14T10:19:05.620Z,10.80
2023-02-14T10:21:49.092Z,11.68
2023-02-14T10:24:25.296Z,12.02
2023-02-14T10:26:58.133Z,12.43
2023-02-14T10:29:25.334Z,12.45
2023-02-14T10:31:59.347Z,11.95
2023-02-14T10:34:48.933Z,10.45
2023-02-14T10:37:25.034Z,11.82
2023-02-14T10:40:00.778Z,10.68
2023-02-14T10:42:42.562Z,12.80
2023-02-14T10:45:29.280Z,10.77
2023-02-14T10:48:16.852Z,11.48
2023-02-14T10:51:07.212Z,12.23
2023-02-14T10:53:51.461Z,11.65
2023-02-14T10:56:28.334Z,11.95
2023-02-14T10:58:57.937Z,12.50
2023-02-14T11:01:25.424Z,12.57
2023-02-14T11:03:58.723Z,12.63
2023-02-14T11:06:25.853Z,13.05
2023-02-14T11:08:53.279Z,12.85
2023-02-14T11:11:35.346Z,12.70
2023-02-14T11:14:30.247Z,13.30
2023-02-14T11:16:59.553Z,12.70
2023-02-14T11:19:37.117Z,12.05
2023-02-14T11:22:05.042Z,12.40
2023-02-14T11:24:36.331Z,12.00
2023-02-14T11:27:12.319Z,12.90
2023-02-14T11:29:39.497Z,10.90
2023-02-14T11:32:15.775Z,12.25
2023-02-14T11:35:07.513Z,13.25
2023-02-14T11:37:43.102Z,13.27
2023-02-14T11:40:29.205Z,11.13
2023-02-14T11:43:13.374Z,12.10
2023-02-14T11:45:44.780Z,12.43
2023-02-14T11:48:37.157Z,11.05
2023-02-14T11:51:11.004Z,15.02
2023-02-14T11:53:56.061Z,13.40
2023-02-14T11:56:24.649Z,12.07
2023-02-14T11:59:05.916Z,11.18
2023-02-14T12:01:35.846Z,11.50
2023-02-14T12:04:07.590Z,12.55
2023-02-14T12:06:36.812Z,13.75
2023-02-14T12:09:22.540Z,11.60
2023-02-14T12:12:04.716Z,13.02
2023-02-14T12:14:36.209Z,13.30
2023-02-14T12:17:12.107Z,12.30
2023-02-14T12:19:54.794Z,13.05
2023-02-14T12:22:55.746Z,15.50
2023-02-14T12:25:31.899Z,12.75
2023-02-14T12:28:09.784Z,11.80
2023-02-14T12:30:36.820Z,13.40
2023-02-14T12:33:15.507Z,11.85
2023-02-14T12:36:08.045Z,13.98
2023-02-14T12:38:59.981Z,12.77
2023-02-14T12:41:29.756Z,11.23
2023-02-14T12:44:21.226Z,12.50
2023-02-14T12:47:02.641Z,12.57
2023-02-14T12:50:10.074Z,12.10
2023-02-14T12:53:10.502Z,11.70
2023-02-14T12:55:55.398Z,10.18
2023-02-14T12:58:40.702Z,11.85
2023-02-14T13:01:38.972Z,13.45
2023-02-14T13:04:35.907Z,13.18
2023-02-14T13:07:02.892Z,10.70
2023-02-14T13:09:53.230Z,11.85
2023-02-14T13:12:38.358Z,11.98
2023-02-14T13:15:33.158Z,12.80
2023-02-14T13:18:25.111Z,13.27
2023-02-14T13:20:58.679Z,11.48
2023-02-14T13:23:40.394Z,11.52
2023-02-14T13:26:15.434Z,13.73
2023-02-14T13:29:02.605Z,11.55
2023-02-14T13:31:30.990Z,11.32
2023-02-14T13:34:03.733Z,11.38
2023-02-14T13:36:32.904Z,12.40
2023-02-14T13:39:01.448Z,11.30
2023-02-14T13:41:29.157Z,10.27
2023-02-14T13:44:05.562Z,12.48
2023-02-14T13:46:32.603Z,12.23
2023-02-14T13:49:04.051Z,12.57
2023-02-14T13:51:45.718Z,11.27
2023-02-14T13:54:28.402Z,10.82
2023-02-14T13:56:55.706Z,10.98
2023-02-14T13:59:34.411Z,14.32
2023-02-14T14:02:29.960Z,13.57
2023-02-14T14:04:57.414Z,13.55
2023-02-14T14:07:31.108Z,12.70
2023-02-14T14:10:01.892Z,13.20
2023-02-14T14:12:28.942Z,11.15
2023-02-14T14:15:05.119Z,11.93
2023-02-14T14:17:50.317Z,12.00
2023-02-14T14:20:18.845Z,11.25
2023-02-14T14:22:58.902Z,13.35
2023-02-14T14:25:41.850Z,11.73
2023-02-14T14:28:20.353Z,10.65
2023-02-14T14:30:47.942Z,13.95
2023-02-14T14:33:33.023Z,11.88
2023-02-14T14:36:08.231Z,12.77
2023-02-14T14:38:47.477Z,13.25
2023-02-14T14:41:14.602Z,11.80
2023-02-14T14:43:42.855Z,12.63
2023-02-14T14:46:13.434Z,11.95
2023-02-14T14:48:51.215Z,11.93
2023-02-14T14:51:34.790Z,12.63
2023-02-14T14:54:27.790Z,13.20
2023-02-14T14:57:00.813Z,12.25
2023-02-14T14:59:36.130Z,12.13
2023-02-14T15:02:07.738Z,13.10
2023-02-14T15:04:35.953Z,12.88
2023-02-14T15:07:33.092Z,13.15
2023-02-14T15:10:01.544Z,13.13
2023-02-14T15:12:48.377Z,14.65
2023-02-14T15:15:18.452Z,13.70
2023-02-14T15:17:46.250Z,14.45
2023-02-14T15:20:22.078Z,13.00
2023-02-14T15:22:52.077Z,12.35
2023-02-14T15:25:26.152Z,15.00
2023-02-14T15:27:53.859Z,17.23
2023-02-14T15:30:26.905Z,14.50
2023-02-14T15:32:55.022Z,16.35
2023-02-14T15:35:29.273Z,14.27
2023-02-14T15:37:59.433Z,14.30
2023-02-14T15:40:31.346Z,15.32
2023-02-14T15:43:34.668Z,15.68
2023-02-14T15:46:29.228Z,14.23
2023-02-14T15:49:01.341Z,14.90
2023-02-14T15:51:36.607Z,13.55
2023-02-14T15:54:20.147Z,14.55
2023-02-14T15:56:51.696Z,14.80
2023-02-14T15:59:30.052Z,14.73
2023-02-14T16:02:28.563Z,13.60
2023-02-14T16:05:02.431Z,13.80
2023-02-14T16:07:32.176Z,14.60
2023-02-14T16:10:38.001Z,15.18
2023-02-14T16:13:29.977Z,16.70
2023-02-14T16:16:14.385Z,17.77
2023-02-14T16:18:43.997Z,16.05
2023-02-14T16:21:14.939Z,17.08
2023-02-14T16:23:44.914Z,15.82
2023-02-14T16:26:13.788Z,14.85
2023-02-14T16:28:43.249Z,17.13
2023-02-14T16:31:16.761Z,15.30
2023-02-14T16:33:44.337Z,15.65
2023-02-14T16:36:34.828Z,14.65
2023-02-14T16:39:05.179Z,14.68
2023-02-14T16:41:34.884Z,16.65
2023-02-14T16:44:03.216Z,14.75
2023-02-14T16:46:33.648Z,15.23
2023-02-14T16:49:01.316Z,16.15
2023-02-14T16:51:33.340Z,15.27
2023-02-14T16:54:05.606Z,17.17
2023-02-14T16:56:48.858Z,15.27
2023-02-14T16:59:16.553Z,14.85
2023-02-14T17:01:44.365Z,16.00
2023-02-14T17:04:11.852Z,16.17
2023-02-14T17:06:43.631Z,15.88
2023-02-14T17:09:14.116Z,14.63
2023-02-14T17:11:49.162Z,15.35
2023-02-14T17:14:23.151Z,13.52
2023-02-14T17:16:51.808Z,14.10
2023-02-14T17:19:19.270Z,13.90
2023-02-14T17:21:46.936Z,15.23
2023-02-14T17:24:14.561Z,14.57
2023-02-14T17:26:41.896Z,18.30
2023-02-14T17:29:09.734Z,16.88
2023-02-14T17:31:37.561Z,14.07
2023-02-14T17:34:05.088Z,16.02
2023-02-14T17:36:35.033Z,14.57
2023-02-14T17:39:03.962Z,14.95
2023-02-14T17:41:32.191Z,14.02
2023-02-14T17:44:02.804Z,13.65
2023-02-14T17:46:32.064Z,14.30
2023-02-14T17:49:03.144Z,15.02
2023-02-14T17:51:31.247Z,14.82
2023-02-14T17:53:59.169Z,14.43
2023-02-14T17:56:26.924Z,14.70
2023-02-14T17:58:55.641Z,14.82
2023-02-14T18:01:25.665Z,15.20
2023-02-14T18:03:55.069Z,14.80
2023-02-14T18:06:24.886Z,14.13
2023-02-14T18:09:01.948Z,15.98
2023-02-14T18:11:30.066Z,12.48
2023-02-14T18:14:00.176Z,15.55
2023-02-14T18:16:27.958Z,15.05
2023-02-14T18:18:55.874Z,15.02
2023-02-14T18:21:29.200Z,15.45
2023-02-14T18:24:01.464Z,16.08
2023-02-14T18:26:31.568Z,15.80
2023-02-14T18:28:59.941Z,17.35
2023-02-14T18:31:28.016Z,16.17
2023-02-14T18:33:57.521Z,14.70
2023-02-14T18:36:24.880Z,16.20
2023-02-14T18:38:53.145Z,15.52
2023-02-14T18:41:23.337Z,14.75
2023-02-14T18:43:55.707Z,13.15
2023-02-14T18:46:27.975Z,14.50
2023-02-14T18:48:58.080Z,14.73
2023-02-14T18:51:28.627Z,14.20
2023-02-14T18:53:58.517Z,14.30
2023-02-14T18:56:30.932Z,12.77
2023-02-14T18:59:01.533Z,15.10
2023-02-14T19:01:37.752Z,17.50
2023-02-14T19:04:09.304Z,22.80
2023-02-14T19:06:37.109Z,17.45
2023-02-14T19:09:08.851Z,20.17
2023-02-14T19:11:37.090Z,18.52
2023-02-14T19:14:10.655Z,17.00
2023-02-14T19:16:53.266Z,13.98
2023-02-14T19:19:23.526Z,14.50
2023-02-14T19:21:53.135Z,13.38
2023-02-14T19:24:23.939Z,12.57
2023-02-14T19:26:52.738Z,25.45
2023-02-14T19:29:21.545Z,17.45
2023-02-14T19:31:55.078Z,15.32
2023-02-14T19:34:28.206Z,13.60
2023-02-14T19:37:02.615Z,15.02
2023-02-14T19:39:31.271Z,16.05
2023-02-14T19:42:00.601Z,14.60
2023-02-14T19:44:30.033Z,16.23
2023-02-14T19:47:04.212Z,15.55
2023-02-14T19:49:36.171Z,14.93
2023-02-14T19:52:09.472Z,15.57
2023-02-14T19:54:42.062Z,15.75
2023-02-14T19:57:14.689Z,16.05
2023-02-14T19:59:44.203Z,15.77
2023-02-14T20:02:15.558Z,14.73
2023-02-14T20:04:45.345Z,16.10
2023-02-14T20:07:16.696Z,16.15
2023-02-14T20:09:45.090Z,15.77
2023-02-14T20:12:12.825Z,16.13
2023-02-14T20:14:50.918Z,15.55
2023-02-14T20:17:20.575Z,17.00
2023-02-14T20:19:50.262Z,16.08
2023-02-14T20:22:18.612Z,16.55
2023-02-14T20:24:49.620Z,14.85
2023-02-14T20:27:20.237Z,16.48
2023-02-14T20:29:48.506Z,16.23
2023-02-14T20:32:21.117Z,17.17
2023-02-14T20:34:51.228Z,17.75
2023-02-14T20:37:20.195Z,17.52
2023-02-14T20:39:48.502Z,16.25
2023-02-14T20:42:16.905Z,16.33
2023-02-14T20:44:46.801Z,16.02
2023-02-14T20:47:18.027Z,16.23
2023-02-14T20:49:50.224Z,17.95
2023-02-14T20:52:19.531Z,17.95
2023-02-14T20:54:48.812Z,18.35
2023-02-14T20:57:16.886Z,16.30
2023-02-14T20:59:46.064Z,17.10
2023-02-14T21:02:16.205Z,15.98
2023-02-14T21:04:45.977Z,13.45
2023-02-14T21:07:14.173Z,14.15
2023-02-14T21:09:42.335Z,17.58
2023-02-14T21:12:11.867Z,21.40
2023-02-14T21:14:44.205Z,20.15
2023-02-14T21:17:12.677Z,20.35
2023-02-14T21:19:44.042Z,17.95
2023-02-14T21:22:11.785Z,16.95
2023-02-14T21:24:40.564Z,18.05
2023-02-14T21:27:08.233Z,16.77
2023-02-14T21:29:36.340Z,17.95
2023-02-14T21:32:04.561Z,17.02
2023-02-14T21:34:34.288Z,17.38
2023-02-14T21:37:02.192Z,16.80
2023-02-14T21:39:31.860Z,17.17
2023-02-14T21:41:59.998Z,18.33
2023-02-14T21:44:45.855Z,17.55
2023-02-14T21:47:13.573Z,19.23
2023-02-14T21:49:59.851Z,18.30
2023-02-14T21:52:30.836Z,18.95
2023-02-14T21:54:58.625Z,19.08
2023-02-14T21:57:26.740Z,21.25
2023-02-14T21:59:55.155Z,20.75
2023-02-14T22:02:23.095Z,20.30
2023-02-14T22:04:50.689Z,20.60
2023-02-14T22:07:18.281Z,16.45
2023-02-14T22:09:45.736Z,18.38
2023-02-14T22:12:13.193Z,19.10
2023-02-14T22:14:41.584Z,16.52
2023-02-14T22:17:08.785Z,18.40
2023-02-14T22:19:37.075Z,19.15
2023-02-14T22:22:04.683Z,18.13
2023-02-14T22:24:31.735Z,17.90
2023-02-14T22:26:58.758Z,18.13
2023-02-14T22:29:26.280Z,18.27
2023-02-14T22:31:53.475Z,17.77
2023-02-14T22:34:20.635Z,17.40
2023-02-14T22:36:48.727Z,15.85
2023-02-14T22:39:17.198Z,14.18
2023-02-14T22:41:44.358Z,15.23
2023-02-14T22:44:12.417Z,15.45
2023-02-14T22:46:40.132Z,16.90
2023-02-14T22:49:08.130Z,16.10
2023-02-14T22:51:38.021Z,16.63
2023-02-14T22:54:15.013Z,15.55
2023-02-14T22:56:45.149Z,15.93
2023-02-14T22:59:18.412Z,16.08
2023-02-14T23:01:46.321Z,16.13
2023-02-14T23:04:15.401Z,16.45
2023-02-14T23:06:43.009Z,18.45
2023-02-14T23:09:11.770Z,16.25
2023-02-14T23:11:40.888Z,17.88
2023-02-14T23:14:27.417Z,16.90
2023-02-14T23:17:12.892Z,15.20
2023-02-14T23:19:58.418Z,15.82
2023-02-14T23:22:25.407Z,15.93
2023-02-14T23:24:54.587Z,15.07
2023-02-14T23:27:32.259Z,17.17
2023-02-14T23:30:00.242Z,14.70
2023-02-14T23:32:27.780Z,15.82
2023-02-14T23:34:54.948Z,15.13
2023-02-14T23:37:22.046Z,12.85
2023-02-14T23:39:49.602Z,13.82
2023-02-14T23:42:16.818Z,13.73
2023-02-14T23:44:45.181Z,15.07
2023-02-14T23:47:13.732Z,14.00
2023-02-14T23:49:42.084Z,15.18
2023-02-14T23:52:11.357Z,15.73
2023-02-14T23:54:39.316Z,13.77
2023-02-14T23:57:07.885Z,14.35
2023-02-14T23:59:35.093Z,14.68
